Time;durP1;ratioP1;P1;durP2;ratioP2;P2;SDS_P1;SDS_P2;PMS_P1;PMS_P2;Temp;Humidity;BMP_temperature;BMP_pressure;BME280_temperature;BME280_humidity;BME280_pressure;Samples;Min_cycle;Max_cycle;Signal;HPM_P1;HPM_P2
2022/09/07 00:01:25;;;;;;;3.17;2.10;;;;;;;;;;4916728;29;20214;-77
2022/09/07 00:03:55;;;;;;;2.53;2.17;;;;;;;;;;4917011;29;20297;-77
2022/09/07 00:06:21;;;;;;;3.42;1.85;;;;;;;;;;4916873;29;20555;-77
2022/09/07 00:08:47;;;;;;;2.72;2.10;;;;;;;;;;4932323;29;20178;-77
2022/09/07 00:11:15;;;;;;;3.20;1.87;;;;;;;;;;4933014;29;20231;-77
2022/09/07 00:13:41;;;;;;;2.78;1.90;;;;;;;;;;4916152;29;20186;-77
2022/09/07 00:16:09;;;;;;;2.10;1.90;;;;;;;;;;4933579;29;20243;-77
2022/09/07 00:18:36;;;;;;;2.33;2.13;;;;;;;;;;4916820;29;20660;-77
2022/09/07 00:21:03;;;;;;;2.47;2.10;;;;;;;;;;4932246;29;20248;-77
2022/09/07 00:23:30;;;;;;;3.00;2.10;;;;;;;;;;4932046;29;20192;-77
2022/09/07 00:26:04;;;;;;;2.57;2.10;;;;;;;;;;4916575;29;20240;-77
2022/09/07 00:28:30;;;;;;;3.40;2.17;;;;;;;;;;4932021;29;20184;-77
2022/09/07 00:30:57;;;;;;;2.57;2.27;;;;;;;;;;4931980;29;20196;-77
2022/09/07 00:33:23;;;;;;;2.50;2.30;;;;;;;;;;4932434;29;20188;-77
2022/09/07 00:35:49;;;;;;;4.80;2.30;;;;;;;;;;4916129;29;20201;-77
2022/09/07 00:38:15;;;;;;;2.63;2.10;;;;;;;;;;4932181;29;20188;-77
2022/09/07 00:40:41;;;;;;;2.40;2.10;;;;;;;;;;4915956;29;20217;-77
2022/09/07 00:43:07;;;;;;;2.20;2.00;;;;;;;;;;4933099;29;20170;-77
2022/09/07 00:45:33;;;;;;;2.03;1.90;;;;;;;;;;4931868;29;20206;-77
2022/09/07 00:47:59;;;;;;;3.30;2.27;;;;;;;;;;4932036;29;20204;-77
2022/09/07 00:50:28;;;;;;;3.17;2.17;;;;;;;;;;4931691;29;20186;-77
2022/09/07 00:52:58;;;;;;;5.83;2.30;;;;;;;;;;4931953;29;20193;-77
2022/09/07 00:55:24;;;;;;;3.47;2.20;;;;;;;;;;4931619;29;20206;-77
2022/09/07 00:57:53;;;;;;;2.30;2.10;;;;;;;;;;4916260;29;20193;-77
2022/09/07 01:00:19;;;;;;;2.63;2.10;;;;;;;;;;4931625;29;20205;-77
2022/09/07 01:02:46;;;;;;;2.10;1.90;;;;;;;;;;4933001;29;20180;-77
2022/09/07 01:05:33;;;;;;;2.57;1.93;;;;;;;;;;4931510;29;20247;-77
2022/09/07 01:07:59;;;;;;;2.60;2.10;;;;;;;;;;4931596;29;20256;-77
2022/09/07 01:10:29;;;;;;;4.03;2.00;;;;;;;;;;4931347;29;20212;-77
2022/09/07 01:12:55;;;;;;;3.87;2.40;;;;;;;;;;4932778;29;20182;-77
2022/09/07 01:15:23;;;;;;;3.40;2.10;;;;;;;;;;4915726;29;20297;-77
2022/09/07 01:18:10;;;;;;;2.67;2.10;;;;;;;;;;4931478;29;20659;-77
2022/09/07 01:20:49;;;;;;;2.33;2.13;;;;;;;;;;4932371;29;20193;-77
2022/09/07 01:23:33;;;;;;;2.93;2.10;;;;;;;;;;4932493;29;20201;-77
2022/09/07 01:26:15;;;;;;;2.53;2.30;;;;;;;;;;4931331;29;20196;-77
2022/09/07 01:28:42;;;;;;;2.43;2.23;;;;;;;;;;4932434;29;20202;-77
2022/09/07 01:31:24;;;;;;;2.47;2.20;;;;;;;;;;4931224;29;20679;-77
2022/09/07 01:34:20;;;;;;;3.20;2.40;;;;;;;;;;4932528;29;20562;-77
2022/09/07 01:37:04;;;;;;;2.40;2.20;;;;;;;;;;4932464;29;20185;-77
2022/09/07 01:39:36;;;;;;;2.60;2.10;;;;;;;;;;4931233;29;20181;-77
2022/09/07 01:42:06;;;;;;;3.70;2.20;;;;;;;;;;4931343;29;20225;-77
2022/09/07 01:44:32;;;;;;;2.90;2.17;;;;;;;;;;4931101;29;20213;-77
2022/09/07 01:47:01;;;;;;;4.60;2.40;;;;;;;;;;4931190;29;20658;-77
2022/09/07 01:49:36;;;;;;;2.20;2.00;;;;;;;;;;4915126;29;20186;-77
2022/09/07 01:52:04;;;;;;;2.57;2.30;;;;;;;;;;4915329;29;20178;-77
2022/09/07 01:54:49;;;;;;;2.70;2.50;;;;;;;;;;4931030;29;20198;-76
2022/09/07 01:57:18;;;;;;;2.53;1.90;;;;;;;;;;4932243;29;20177;-77
2022/09/07 01:59:53;;;;;;;2.30;2.07;;;;;;;;;;4931887;29;20233;-77
2022/09/07 02:02:21;;;;;;;2.97;2.00;;;;;;;;;;4915250;29;20177;-77
2022/09/07 02:04:50;;;;;;;2.70;2.07;;;;;;;;;;4915316;29;20202;-77
2022/09/07 02:07:52;;;;;;;2.60;2.30;;;;;;;;;;4930989;29;20213;-77
2022/09/07 02:10:21;;;;;;;3.10;2.27;;;;;;;;;;4913544;28;20193;-77
2022/09/07 02:12:50;;;;;;;2.70;2.20;;;;;;;;;;4927361;28;20186;-77
2022/09/07 02:15:19;;;;;;;4.03;2.60;;;;;;;;;;4930800;29;20680;-77
2022/09/07 02:17:49;;;;;;;3.03;2.17;;;;;;;;;;4930825;29;20600;-77
2022/09/07 02:20:19;;;;;;;2.97;2.20;;;;;;;;;;4931877;29;20210;-77
2022/09/07 02:22:47;;;;;;;2.80;2.50;;;;;;;;;;4930768;29;20205;-77
2022/09/07 02:25:17;;;;;;;3.63;2.90;;;;;;;;;;4930380;29;20206;-77
2022/09/07 02:27:47;;;;;;;3.23;2.93;;;;;;;;;;4930801;29;20185;-76
2022/09/07 02:30:13;;;;;;;5.17;2.93;;;;;;;;;;4930288;29;20216;-77
2022/09/07 02:32:39;;;;;;;3.37;2.50;;;;;;;;;;4930535;29;20186;-77
2022/09/07 02:35:06;;;;;;;3.00;2.70;;;;;;;;;;4915525;29;20573;-77
2022/09/07 02:37:32;;;;;;;3.63;2.57;;;;;;;;;;4933889;29;20189;-77
2022/09/07 02:39:59;;;;;;;3.20;2.70;;;;;;;;;;4933575;29;20210;-77
2022/09/07 02:42:26;;;;;;;3.53;2.80;;;;;;;;;;4934937;29;20202;-77
2022/09/07 02:44:52;;;;;;;3.70;2.77;;;;;;;;;;4934723;29;20241;-77
2022/09/07 02:47:30;;;;;;;3.57;2.50;;;;;;;;;;4935038;29;20209;-77
2022/09/07 02:50:15;;;;;;;2.57;2.37;;;;;;;;;;4933466;29;20209;-77
2022/09/07 02:53:05;;;;;;;2.67;2.40;;;;;;;;;;4933859;29;20196;-77
2022/09/07 02:55:37;;;;;;;2.63;2.43;;;;;;;;;;4934873;29;20197;-77
2022/09/07 02:58:25;;;;;;;3.10;2.67;;;;;;;;;;4933465;29;20231;-77
2022/09/07 03:00:55;;;;;;;3.23;2.87;;;;;;;;;;4933573;29;20265;-77
2022/09/07 03:03:38;;;;;;;2.23;2.03;;;;;;;;;;4933562;29;20217;-77
2022/09/07 03:06:09;;;;;;;3.40;3.03;;;;;;;;;;4933499;29;20192;-76
2022/09/07 03:08:40;;;;;;;4.67;3.30;;;;;;;;;;4933419;29;20209;-76
2022/09/07 03:11:07;;;;;;;3.63;3.33;;;;;;;;;;4917404;29;20249;-77
2022/09/07 03:13:33;;;;;;;4.50;3.50;;;;;;;;;;4917733;29;20189;-77
2022/09/07 03:15:59;;;;;;;5.73;3.20;;;;;;;;;;4933474;29;20548;-77
2022/09/07 03:18:26;;;;;;;4.60;2.90;;;;;;;;;;4933348;29;20185;-77
2022/09/07 03:20:52;;;;;;;4.43;3.17;;;;;;;;;;4933057;29;20178;-77
2022/09/07 03:23:18;;;;;;;3.67;3.20;;;;;;;;;;4933174;29;20189;-77
2022/09/07 03:25:44;;;;;;;3.07;2.63;;;;;;;;;;4932979;29;20205;-77
2022/09/07 03:28:11;;;;;;;3.37;2.63;;;;;;;;;;4933317;29;20280;-77
2022/09/07 03:30:41;;;;;;;4.97;2.70;;;;;;;;;;4932926;29;20205;-76
2022/09/07 03:33:07;;;;;;;3.17;2.53;;;;;;;;;;4933151;29;20182;-76
2022/09/07 03:35:33;;;;;;;3.43;2.73;;;;;;;;;;4933004;29;20236;-77
2022/09/07 03:37:59;;;;;;;3.07;2.70;;;;;;;;;;4917169;29;20573;-77
2022/09/07 03:40:25;;;;;;;3.37;2.63;;;;;;;;;;4916968;29;20235;-77
2022/09/07 03:42:51;;;;;;;4.10;2.83;;;;;;;;;;4932906;29;20567;-77
2022/09/07 03:45:17;;;;;;;3.40;3.10;;;;;;;;;;4917615;29;20217;-77
2022/09/07 03:47:43;;;;;;;5.07;2.80;;;;;;;;;;4932691;29;20276;-77
2022/09/07 03:50:09;;;;;;;4.23;2.67;;;;;;;;;;4933936;29;20344;-77
2022/09/07 03:52:35;;;;;;;3.07;2.77;;;;;;;;;;4933018;29;20640;-77
2022/09/07 04:05:25;;;;;;;3.83;2.87;;;;;;;;;;5227411;22;20644;-78
2022/09/07 04:07:51;;;;;;;6.40;2.90;;;;;;;;;;4932686;29;20178;-78
2022/09/07 04:10:17;;;;;;;4.17;2.90;;;;;;;;;;4916679;29;20256;-78
2022/09/07 04:12:43;;;;;;;3.97;2.90;;;;;;;;;;4932741;29;20185;-78
2022/09/07 04:15:09;;;;;;;3.53;2.70;;;;;;;;;;4916515;29;20251;-78
2022/09/07 04:17:35;;;;;;;4.63;2.67;;;;;;;;;;5006797;22;20225;-76
2022/09/07 04:20:03;;;;;;;3.53;3.00;;;;;;;;;;5015793;28;20179;-77
2022/09/07 04:22:29;;;;;;;5.83;3.00;;;;;;;;;;5032608;28;20547;-77
2022/09/07 04:24:55;;;;;;;3.67;3.00;;;;;;;;;;5015839;28;20178;-77
2022/09/07 04:27:21;;;;;;;8.37;3.13;;;;;;;;;;5015880;28;20201;-77
2022/09/07 04:29:47;;;;;;;5.80;3.00;;;;;;;;;;5015538;28;20574;-77
2022/09/07 04:32:13;;;;;;;6.27;3.40;;;;;;;;;;5032187;28;20198;-77
2022/09/07 04:34:39;;;;;;;3.90;3.23;;;;;;;;;;5032264;28;20209;-77
2022/09/07 04:37:05;;;;;;;5.60;3.33;;;;;;;;;;5015817;28;20631;-77
2022/09/07 04:39:31;;;;;;;4.30;3.00;;;;;;;;;;5015689;28;20245;-77
2022/09/07 04:41:57;;;;;;;4.60;3.23;;;;;;;;;;5032049;28;20629;-77
2022/09/07 04:44:23;;;;;;;5.93;3.57;;;;;;;;;;5031927;28;20182;-78
2022/09/07 04:46:49;;;;;;;4.23;3.30;;;;;;;;;;5015406;28;20558;-77
2022/09/07 04:49:16;;;;;;;4.67;3.17;;;;;;;;;;5015581;28;20183;-77
2022/09/07 04:51:43;;;;;;;4.00;3.03;;;;;;;;;;5031884;28;20214;-76
2022/09/07 04:54:09;;;;;;;6.70;3.40;;;;;;;;;;5015655;28;20179;-76
2022/09/07 04:56:35;;;;;;;4.30;3.40;;;;;;;;;;5031758;28;20170;-76
2022/09/07 04:59:02;;;;;;;5.77;3.60;;;;;;;;;;5030758;28;20195;-76
2022/09/07 05:01:28;;;;;;;5.23;3.50;;;;;;;;;;5015525;28;20240;-76
2022/09/07 05:03:54;;;;;;;4.30;3.60;;;;;;;;;;5031604;28;20205;-76
2022/09/07 05:06:21;;;;;;;4.37;3.60;;;;;;;;;;5031680;28;20189;-76
2022/09/07 05:08:49;;;;;;;4.73;3.60;;;;;;;;;;5031318;28;20208;-76
2022/09/07 05:11:15;;;;;;;6.10;3.67;;;;;;;;;;5015117;28;20667;-77
2022/09/07 05:13:42;;;;;;;5.37;3.83;;;;;;;;;;5031463;28;20184;-76
2022/09/07 05:16:08;;;;;;;5.67;3.73;;;;;;;;;;5032606;28;20174;-76
2022/09/07 05:18:34;;;;;;;4.57;3.60;;;;;;;;;;5031240;28;20218;-76
2022/09/07 05:21:14;;;;;;;4.27;3.70;;;;;;;;;;5014624;28;20244;-76
2022/09/07 05:23:40;;;;;;;4.53;3.37;;;;;;;;;;5014863;28;20202;-76
2022/09/07 05:26:07;;;;;;;3.90;3.50;;;;;;;;;;5015172;28;20579;-76
2022/09/07 05:28:33;;;;;;;5.60;3.57;;;;;;;;;;5014980;28;20202;-76
2022/09/07 05:31:03;;;;;;;4.77;3.57;;;;;;;;;;5032300;28;20290;-75
2022/09/07 05:33:29;;;;;;;4.80;3.73;;;;;;;;;;5031304;28;20179;-76
2022/09/07 05:35:57;;;;;;;4.40;3.73;;;;;;;;;;5015138;28;20174;-76
2022/09/07 05:38:24;;;;;;;4.50;3.57;;;;;;;;;;5014980;28;20225;-76
2022/09/07 05:43:54;;;;;;;3.80;3.50;;;;;;;;;;5032660;28;20204;-75
2022/09/07 05:46:20;;;;;;;4.67;3.47;;;;;;;;;;5031418;28;20185;-76
2022/09/07 05:48:46;;;;;;;4.73;3.97;;;;;;;;;;5015098;28;20252;-77
2022/09/07 05:51:16;;;;;;;5.23;3.77;;;;;;;;;;5031225;28;20198;-76
2022/09/07 05:53:44;;;;;;;7.33;3.77;;;;;;;;;;5031729;28;20224;-77
2022/09/07 05:56:11;;;;;;;4.60;4.13;;;;;;;;;;5015352;28;20189;-77
2022/09/07 05:58:37;;;;;;;4.50;4.00;;;;;;;;;;5032388;28;20193;-77
2022/09/07 06:01:08;;;;;;;4.67;3.57;;;;;;;;;;5031455;28;20269;-77
2022/09/07 06:03:37;;;;;;;4.73;3.40;;;;;;;;;;5031264;28;20241;-77
2022/09/07 06:06:08;;;;;;;3.63;3.33;;;;;;;;;;5015120;28;20185;-77
2022/09/07 06:08:35;;;;;;;3.83;3.43;;;;;;;;;;5031316;28;20202;-77
2022/09/07 06:11:05;;;;;;;4.80;3.57;;;;;;;;;;5034996;28;20305;-77
2022/09/07 06:13:31;;;;;;;4.17;3.50;;;;;;;;;;5019068;28;20182;-76
2022/09/07 06:16:00;;;;;;;4.10;3.67;;;;;;;;;;5018617;28;20182;-76
2022/09/07 06:18:30;;;;;;;5.17;3.47;;;;;;;;;;5036485;28;20209;-77
2022/09/07 06:21:01;;;;;;;4.37;3.47;;;;;;;;;;5018743;28;20666;-76
2022/09/07 06:23:27;;;;;;;3.67;3.37;;;;;;;;;;5035065;28;20174;-76
2022/09/07 06:25:53;;;;;;;3.53;3.23;;;;;;;;;;5035036;28;20269;-76
2022/09/07 06:28:19;;;;;;;4.50;3.40;;;;;;;;;;5035102;28;20569;-76
2022/09/07 06:30:45;;;;;;;3.87;3.47;;;;;;;;;;5018578;28;20202;-76
2022/09/07 06:33:11;;;;;;;3.90;3.50;;;;;;;;;;5018738;28;20181;-76
2022/09/07 06:35:37;;;;;;;3.80;3.40;;;;;;;;;;5018413;28;20228;-76
2022/09/07 06:38:03;;;;;;;3.73;3.33;;;;;;;;;;5018620;28;20209;-76
2022/09/07 06:40:29;;;;;;;4.13;3.73;;;;;;;;;;5034809;28;20174;-76
2022/09/07 06:42:55;;;;;;;4.30;3.90;;;;;;;;;;5018387;28;20236;-76
2022/09/07 06:45:21;;;;;;;4.27;3.70;;;;;;;;;;5018245;28;20178;-76
2022/09/07 06:47:47;;;;;;;4.60;4.13;;;;;;;;;;5034765;28;20203;-76
2022/09/07 06:53:17;;;;;;;5.00;4.43;;;;;;;;;;5035912;28;20153;-76
2022/09/07 06:55:44;;;;;;;4.77;3.60;;;;;;;;;;5034496;28;20633;-75
2022/09/07 06:58:10;;;;;;;3.60;3.27;;;;;;;;;;5034645;28;20226;-76
2022/09/07 07:00:36;;;;;;;4.37;3.77;;;;;;;;;;5032614;28;20594;-75
2022/09/07 07:03:02;;;;;;;4.30;3.90;;;;;;;;;;5027538;28;20193;-75
2022/09/07 07:05:28;;;;;;;5.20;4.13;;;;;;;;;;5016852;28;20178;-76
2022/09/07 07:07:55;;;;;;;5.03;4.30;;;;;;;;;;5016982;28;20198;-74
2022/09/07 07:10:21;;;;;;;5.07;4.03;;;;;;;;;;5014667;28;20206;-74
2022/09/07 07:12:47;;;;;;;5.10;4.60;;;;;;;;;;5009750;28;20182;-73
2022/09/07 07:15:25;;;;;;;4.47;4.07;;;;;;;;;;5030332;28;20181;-74
2022/09/07 07:17:51;;;;;;;5.03;4.00;;;;;;;;;;5006482;28;20218;-74
2022/09/07 07:20:18;;;;;;;5.33;3.67;;;;;;;;;;4997958;28;20237;-74
2022/09/07 07:22:44;;;;;;;6.23;3.97;;;;;;;;;;5013888;28;20236;-74
2022/09/07 07:25:10;;;;;;;4.20;3.80;;;;;;;;;;4997936;28;20191;-74
2022/09/07 07:27:36;;;;;;;4.63;3.90;;;;;;;;;;5012368;28;20668;-76
2022/09/07 07:30:02;;;;;;;5.43;3.47;;;;;;;;;;5017263;28;20217;-76
2022/09/07 07:32:28;;;;;;;5.50;3.87;;;;;;;;;;5033306;28;20633;-75
2022/09/07 07:34:54;;;;;;;4.77;4.00;;;;;;;;;;5034102;28;20189;-77
2022/09/07 07:37:21;;;;;;;4.83;4.30;;;;;;;;;;5016867;28;20345;-76
2022/09/07 07:39:49;;;;;;;4.20;3.80;;;;;;;;;;5016595;28;20206;-76
2022/09/07 07:42:15;;;;;;;4.23;3.80;;;;;;;;;;5017160;28;20190;-76
2022/09/07 07:44:41;;;;;;;5.10;3.47;;;;;;;;;;5032898;28;20177;-77
2022/09/07 07:47:07;;;;;;;3.60;3.10;;;;;;;;;;5016464;28;20285;-77
2022/09/07 07:49:33;;;;;;;4.80;3.33;;;;;;;;;;5016479;28;20184;-76
2022/09/07 07:51:59;;;;;;;3.67;3.10;;;;;;;;;;5032213;28;20191;-77
2022/09/07 07:54:25;;;;;;;8.03;2.93;;;;;;;;;;5022762;28;20174;-77
2022/09/07 07:56:51;;;;;;;6.00;3.37;;;;;;;;;;5016450;28;20182;-76
2022/09/07 07:59:17;;;;;;;3.00;2.47;;;;;;;;;;5016344;28;20170;-77
2022/09/07 08:01:43;;;;;;;4.13;2.80;;;;;;;;;;5016522;28;20182;-77
2022/09/07 08:04:09;;;;;;;3.93;2.40;;;;;;;;;;5016419;28;20214;-77
2022/09/07 08:06:36;;;;;;;2.33;2.10;;;;;;;;;;5032973;28;20611;-77
2022/09/07 08:09:02;;;;;;;2.63;2.00;;;;;;;;;;5032375;28;20210;-77
2022/09/07 08:11:30;;;;;;;3.05;2.05;;;;;;;;;;5016186;28;20216;-77
2022/09/07 08:13:58;;;;;;;2.10;1.80;;;;;;;;;;5016382;28;20265;-77
2022/09/07 08:16:24;;;;;;;2.13;1.80;;;;;;;;;;5032623;28;20185;-77
2022/09/07 08:18:52;;;;;;;2.90;2.10;;;;;;;;;;5015833;28;20584;-78
2022/09/07 08:21:18;;;;;;;2.03;1.80;;;;;;;;;;5032338;28;20175;-77
2022/09/07 08:23:44;;;;;;;3.25;1.80;;;;;;;;;;5016265;28;20179;-77
2022/09/07 08:26:10;;;;;;;2.25;1.88;;;;;;;;;;5015903;28;20208;-77
2022/09/07 08:28:37;;;;;;;3.58;2.00;;;;;;;;;;5032199;28;20194;-78
2022/09/07 08:31:04;;;;;;;2.40;1.88;;;;;;;;;;5016122;28;20622;-78
2022/09/07 08:33:31;;;;;;;1.85;1.75;;;;;;;;;;5032172;28;20204;-78
2022/09/07 08:35:58;;;;;;;2.00;1.80;;;;;;;;;;5032138;28;20174;-75
2022/09/07 08:38:24;;;;;;;2.30;2.10;;;;;;;;;;5031937;28;20198;-75
2022/09/07 08:40:51;;;;;;;3.67;2.17;;;;;;;;;;5031922;28;20174;-75
2022/09/07 08:43:17;;;;;;;2.55;2.00;;;;;;;;;;5033364;28;20170;-75
2022/09/07 08:45:46;;;;;;;2.60;2.00;;;;;;;;;;5032186;28;20204;-74
2022/09/07 08:48:14;;;;;;;2.50;2.08;;;;;;;;;;5015440;28;20199;-75
2022/09/07 08:50:45;;;;;;;3.53;2.17;;;;;;;;;;5015311;28;20656;-75
2022/09/07 08:53:15;;;;;;;3.22;2.25;;;;;;;;;;5031792;28;20215;-75
2022/09/07 08:55:55;;;;;;;2.58;2.10;;;;;;;;;;5031763;28;20546;-75
2022/09/07 08:58:31;;;;;;;2.30;2.05;;;;;;;;;;5031610;28;20221;-74
2022/09/07 09:00:57;;;;;;;2.67;2.03;;;;;;;;;;5031493;28;20556;-76
2022/09/07 09:03:32;;;;;;;2.92;2.13;;;;;;;;;;5015552;28;20178;-75
2022/09/07 09:06:06;;;;;;;1.70;1.60;;;;;;;;;;5032766;28;20199;-76
2022/09/07 09:08:31;;;;;;;2.63;1.92;;;;;;;;;;5030187;28;20202;-75
2022/09/07 09:11:05;;;;;;;1.85;1.70;;;;;;;;;;5031126;28;20260;-75
2022/09/07 09:13:37;;;;;;;2.78;1.92;;;;;;;;;;5031358;28;20170;-75
2022/09/07 09:16:23;;;;;;;3.88;2.00;;;;;;;;;;5031412;28;20269;-75
2022/09/07 09:19:21;;;;;;;3.78;2.00;;;;;;;;;;5030956;28;20198;-75
2022/09/07 09:21:47;;;;;;;2.90;1.80;;;;;;;;;;4978117;28;20179;-76
2022/09/07 09:24:18;;;;;;;2.55;1.95;;;;;;;;;;5031562;28;20167;-75
2022/09/07 09:26:52;;;;;;;4.40;2.03;;;;;;;;;;5031272;28;20268;-77
2022/09/07 09:29:19;;;;;;;4.30;1.73;;;;;;;;;;5031491;28;20170;-76
2022/09/07 09:31:45;;;;;;;2.95;2.00;;;;;;;;;;5015125;28;20209;-76
2022/09/07 09:34:13;;;;;;;3.92;2.22;;;;;;;;;;5031062;28;20178;-76
2022/09/07 09:36:44;;;;;;;2.50;2.30;;;;;;;;;;5014680;28;20206;-76
2022/09/07 09:39:29;;;;;;;4.18;2.30;;;;;;;;;;5014700;28;20206;-76
2022/09/07 09:41:56;;;;;;;2.85;2.08;;;;;;;;;;5032322;28;20213;-76
2022/09/07 09:44:22;;;;;;;2.85;1.98;;;;;;;;;;5013043;28;20190;-75
2022/09/07 09:46:51;;;;;;;4.22;2.35;;;;;;;;;;5033053;28;20754;-74
2022/09/07 09:49:17;;;;;;;4.22;2.15;;;;;;;;;;5052257;28;20170;-74
2022/09/07 09:51:45;;;;;;;4.35;2.30;;;;;;;;;;5037708;28;20316;-74
2022/09/07 09:54:15;;;;;;;5.82;2.55;;;;;;;;;;5031077;28;20166;-75
2022/09/07 09:56:42;;;;;;;3.30;2.40;;;;;;;;;;5031038;28;20583;-74
2022/09/07 09:59:28;;;;;;;4.15;2.28;;;;;;;;;;5031063;28;20170;-76
2022/09/07 10:01:54;;;;;;;3.80;2.13;;;;;;;;;;5031421;28;20180;-76
2022/09/07 10:04:24;;;;;;;3.13;2.10;;;;;;;;;;5031515;28;20543;-76
2022/09/07 10:06:54;;;;;;;3.85;2.00;;;;;;;;;;5032494;28;20190;-76
2022/09/07 10:09:21;;;;;;;4.57;2.03;;;;;;;;;;5031464;28;20181;-76
2022/09/07 10:11:49;;;;;;;3.65;2.30;;;;;;;;;;5015153;28;20331;-76
2022/09/07 10:14:20;;;;;;;2.72;2.38;;;;;;;;;;5031254;28;20553;-75
2022/09/07 10:16:46;;;;;;;2.97;2.20;;;;;;;;;;5014711;28;20576;-75
2022/09/07 10:19:31;;;;;;;3.97;2.20;;;;;;;;;;4965960;23;20257;-76
2022/09/07 10:21:58;;;;;;;3.80;2.10;;;;;;;;;;4931860;29;20169;-75
2022/09/07 10:24:26;;;;;;;3.65;2.22;;;;;;;;;;4915075;29;20189;-73
2022/09/07 10:26:52;;;;;;;5.05;2.35;;;;;;;;;;4930861;29;20170;-74
2022/09/07 10:29:25;;;;;;;4.22;2.42;;;;;;;;;;4914618;29;20704;-74
2022/09/07 10:32:03;;;;;;;3.80;2.25;;;;;;;;;;4930642;29;20296;-74
2022/09/07 10:34:47;;;;;;;4.85;2.13;;;;;;;;;;4930606;29;20173;-74
2022/09/07 10:37:22;;;;;;;5.00;2.10;;;;;;;;;;4930612;29;20273;-74
2022/09/07 10:40:09;;;;;;;3.47;2.15;;;;;;;;;;4930495;29;20170;-74
2022/09/07 10:42:37;;;;;;;3.78;2.25;;;;;;;;;;4930387;29;20236;-74
2022/09/07 10:45:16;;;;;;;5.53;2.17;;;;;;;;;;4914666;29;20320;-74
2022/09/07 10:47:48;;;;;;;3.10;1.92;;;;;;;;;;4931726;29;20202;-74
2022/09/07 10:50:24;;;;;;;3.78;1.88;;;;;;;;;;4930248;29;20259;-74
2022/09/07 10:53:10;;;;;;;5.28;2.00;;;;;;;;;;4930439;29;20184;-74
2022/09/07 10:55:39;;;;;;;5.00;2.10;;;;;;;;;;4920527;29;20223;-74
2022/09/07 10:58:23;;;;;;;3.38;2.00;;;;;;;;;;4933768;29;20280;-74
2022/09/07 11:01:06;;;;;;;2.40;2.00;;;;;;;;;;4933489;29;20173;-74
2022/09/07 11:03:50;;;;;;;2.70;1.90;;;;;;;;;;4933526;29;20185;-74
2022/09/07 11:06:22;;;;;;;4.38;2.08;;;;;;;;;;4933325;29;20220;-74
2022/09/07 11:09:07;;;;;;;3.03;2.30;;;;;;;;;;4933339;29;20205;-74
2022/09/07 11:11:57;;;;;;;4.00;1.80;;;;;;;;;;4933236;29;20213;-74
2022/09/07 11:14:25;;;;;;;3.65;2.00;;;;;;;;;;4933425;29;20172;-75
2022/09/07 11:16:58;;;;;;;3.83;1.90;;;;;;;;;;4917809;29;20188;-77
2022/09/07 11:19:24;;;;;;;4.18;1.85;;;;;;;;;;4917614;29;20291;-78
2022/09/07 11:22:09;;;;;;;3.20;1.85;;;;;;;;;;4931568;29;20189;-76
2022/09/07 11:24:35;;;;;;;3.42;1.80;;;;;;;;;;4918600;29;20192;-76
2022/09/07 11:27:03;;;;;;;3.70;1.70;;;;;;;;;;4914932;29;20182;-77
2022/09/07 11:29:35;;;;;;;3.60;2.10;;;;;;;;;;4914823;29;20232;-78
2022/09/07 11:32:04;;;;;;;4.10;1.85;;;;;;;;;;4914585;29;20257;-78
2022/09/07 11:34:37;;;;;;;3.72;1.52;;;;;;;;;;4929924;29;20178;-78
2022/09/07 11:37:09;;;;;;;2.65;1.73;;;;;;;;;;4933561;29;20166;-78
2022/09/07 11:39:40;;;;;;;1.77;1.50;;;;;;;;;;4910893;29;20194;-83
2022/09/07 11:42:13;;;;;;;3.28;1.63;;;;;;;;;;4915221;29;20183;-82
2022/09/07 11:44:46;;;;;;;2.72;1.48;;;;;;;;;;4931684;29;20177;-80
2022/09/07 11:47:30;;;;;;;2.13;1.40;;;;;;;;;;4933540;29;20236;-78
2022/09/07 11:49:57;;;;;;;3.88;1.77;;;;;;;;;;4934571;29;20261;-82
2022/09/07 11:52:23;;;;;;;5.20;2.05;;;;;;;;;;4917989;29;20182;-77
2022/09/07 11:54:57;;;;;;;3.05;1.60;;;;;;;;;;4934534;29;20304;-79
2022/09/07 11:57:26;;;;;;;3.22;1.95;;;;;;;;;;4918403;29;20313;-79
2022/09/07 12:00:01;;;;;;;3.53;2.03;;;;;;;;;;4934045;29;20604;-78
2022/09/07 12:02:39;;;;;;;3.20;1.60;;;;;;;;;;4933262;29;20193;-77
2022/09/07 12:05:17;;;;;;;2.47;1.60;;;;;;;;;;4933154;29;20269;-77
2022/09/07 12:07:47;;;;;;;3.10;1.65;;;;;;;;;;4933895;29;20194;-77
2022/09/07 12:10:21;;;;;;;2.33;1.70;;;;;;;;;;4932645;29;20224;-76
2022/09/07 12:12:55;;;;;;;2.47;1.67;;;;;;;;;;4933105;29;20624;-77
2022/09/07 12:15:31;;;;;;;2.80;1.90;;;;;;;;;;4928556;29;20228;-77
2022/09/07 12:18:16;;;;;;;2.78;1.60;;;;;;;;;;4915215;29;20209;-77
2022/09/07 12:20:46;;;;;;;3.35;1.73;;;;;;;;;;4930232;29;20189;-80
2022/09/07 12:23:15;;;;;;;3.63;1.70;;;;;;;;;;4925476;29;20182;-80
2022/09/07 12:25:42;;;;;;;3.20;1.60;;;;;;;;;;4923926;29;20236;-78
2022/09/07 12:28:18;;;;;;;2.22;1.63;;;;;;;;;;4932488;29;20225;-77
2022/09/07 12:30:51;;;;;;;1.75;1.42;;;;;;;;;;4932348;29;20574;-77
2022/09/07 12:33:28;;;;;;;2.40;1.60;;;;;;;;;;4930733;29;20190;-77
2022/09/07 12:35:57;;;;;;;3.33;1.70;;;;;;;;;;4932212;29;20666;-77
2022/09/07 12:38:29;;;;;;;1.63;1.50;;;;;;;;;;4916933;29;20204;-77
2022/09/07 12:41:03;;;;;;;4.63;1.85;;;;;;;;;;4932524;29;20339;-77
2022/09/07 12:43:53;;;;;;;4.38;1.65;;;;;;;;;;4917054;29;20186;-77
2022/09/07 12:46:31;;;;;;;3.40;1.80;;;;;;;;;;4932799;29;20167;-77
2022/09/07 12:49:03;;;;;;;3.67;1.98;;;;;;;;;;4932133;29;20194;-77
2022/09/07 12:51:37;;;;;;;3.92;2.00;;;;;;;;;;4932637;29;20202;-77
2022/09/07 12:54:26;;;;;;;2.38;1.77;;;;;;;;;;4932787;29;20170;-77
2022/09/07 12:56:59;;;;;;;3.42;1.88;;;;;;;;;;4942956;28;20189;-77
2022/09/07 12:59:31;;;;;;;3.70;1.60;;;;;;;;;;4931959;29;20229;-77
2022/09/07 13:02:02;;;;;;;2.75;1.70;;;;;;;;;;4933440;29;20182;-77
2022/09/07 13:04:35;;;;;;;4.47;1.88;;;;;;;;;;4932483;29;20170;-77
2022/09/07 13:07:20;;;;;;;2.60;1.65;;;;;;;;;;4932503;29;20170;-77
2022/09/07 13:09:56;;;;;;;1.88;1.67;;;;;;;;;;4933099;29;20253;-77
2022/09/07 13:12:25;;;;;;;1.77;1.48;;;;;;;;;;4932916;29;20174;-79
2022/09/07 13:14:55;;;;;;;3.83;1.73;;;;;;;;;;4933120;29;20174;-79
2022/09/07 13:17:40;;;;;;;4.43;1.88;;;;;;;;;;4931099;29;20194;-79
2022/09/07 13:20:17;;;;;;;4.05;1.60;;;;;;;;;;4913927;29;20181;-79
2022/09/07 13:22:42;;;;;;;3.08;1.77;;;;;;;;;;4915628;29;20249;-79
2022/09/07 13:25:19;;;;;;;3.42;1.80;;;;;;;;;;4914460;29;20270;-79
2022/09/07 13:27:58;;;;;;;3.28;1.80;;;;;;;;;;4924075;29;20268;-79
2022/09/07 13:30:27;;;;;;;1.75;1.60;;;;;;;;;;4932838;29;20259;-80
2022/09/07 13:33:13;;;;;;;2.13;1.70;;;;;;;;;;4925997;29;20170;-79
2022/09/07 13:35:44;;;;;;;1.88;1.60;;;;;;;;;;4914648;29;20231;-80
2022/09/07 13:38:30;;;;;;;1.70;1.60;;;;;;;;;;4914185;29;20195;-79
2022/09/07 13:41:03;;;;;;;2.50;1.60;;;;;;;;;;4914137;29;20194;-79
2022/09/07 13:43:29;;;;;;;3.78;1.70;;;;;;;;;;4915181;29;20179;-79
2022/09/07 13:46:00;;;;;;;3.78;1.90;;;;;;;;;;4916506;29;20178;-79
2022/09/07 13:48:30;;;;;;;3.70;1.80;;;;;;;;;;4915070;29;20202;-79
2022/09/07 13:50:59;;;;;;;3.55;1.65;;;;;;;;;;4915481;29;20213;-79
2022/09/07 13:53:47;;;;;;;2.88;1.40;;;;;;;;;;4914359;29;20167;-78
2022/09/07 13:56:32;;;;;;;3.28;1.63;;;;;;;;;;4915284;29;20180;-79
2022/09/07 13:58:58;;;;;;;1.75;1.38;;;;;;;;;;4913980;29;20293;-78
2022/09/07 14:01:25;;;;;;;1.95;1.60;;;;;;;;;;4898009;29;20217;-78
2022/09/07 14:03:53;;;;;;;1.77;1.40;;;;;;;;;;4914301;29;20178;-78
2022/09/07 14:06:24;;;;;;;2.83;1.42;;;;;;;;;;4897870;29;20186;-76
2022/09/07 14:08:52;;;;;;;1.60;1.50;;;;;;;;;;4912657;29;20202;-76
2022/09/07 14:11:19;;;;;;;2.30;1.65;;;;;;;;;;4912818;29;20583;-77
2022/09/07 14:13:44;;;;;;;2.08;1.50;;;;;;;;;;4912535;29;20185;-78
2022/09/07 14:16:10;;;;;;;3.03;1.40;;;;;;;;;;4913880;29;20178;-78
2022/09/07 14:18:39;;;;;;;2.40;1.60;;;;;;;;;;4897097;28;20272;-78
2022/09/07 14:21:08;;;;;;;1.95;1.40;;;;;;;;;;4912300;29;20225;-77
2022/09/07 14:23:35;;;;;;;3.47;1.70;;;;;;;;;;4912806;29;20214;-79
2022/09/07 14:26:07;;;;;;;3.63;1.60;;;;;;;;;;4897621;29;20189;-77
2022/09/07 14:28:38;;;;;;;3.22;1.50;;;;;;;;;;4912814;29;20226;-78
2022/09/07 14:31:04;;;;;;;2.83;1.50;;;;;;;;;;4899522;29;20296;-79
2022/09/07 14:33:31;;;;;;;3.45;1.52;;;;;;;;;;4918634;29;20193;-79
2022/09/07 14:35:58;;;;;;;4.00;1.70;;;;;;;;;;4919375;29;20603;-79
2022/09/07 14:38:35;;;;;;;2.95;1.60;;;;;;;;;;4931288;29;20201;-77
2022/09/07 14:41:03;;;;;;;2.13;1.50;;;;;;;;;;4919413;29;20185;-76
2022/09/07 14:43:31;;;;;;;1.75;1.50;;;;;;;;;;4919052;29;20208;-75
2022/09/07 14:46:09;;;;;;;1.48;1.38;;;;;;;;;;4934806;29;20177;-77
2022/09/07 14:48:37;;;;;;;1.88;1.65;;;;;;;;;;4934403;29;20201;-77
2022/09/07 14:51:04;;;;;;;3.85;1.77;;;;;;;;;;4934397;29;20233;-78
2022/09/07 14:53:30;;;;;;;2.13;1.40;;;;;;;;;;4934200;29;20170;-77
2022/09/07 14:56:07;;;;;;;3.20;1.65;;;;;;;;;;4934468;29;20181;-77
2022/09/07 14:58:33;;;;;;;2.65;1.58;;;;;;;;;;4934102;29;20197;-77
2022/09/07 15:01:22;;;;;;;2.13;1.90;;;;;;;;;;4918309;29;20213;-76
2022/09/07 15:03:48;;;;;;;3.25;1.58;;;;;;;;;;4941614;28;20194;-77
2022/09/07 15:06:29;;;;;;;3.10;1.70;;;;;;;;;;4934329;29;20186;-77
2022/09/07 15:08:55;;;;;;;3.10;1.70;;;;;;;;;;4935327;29;20186;-77
2022/09/07 15:11:21;;;;;;;2.97;1.50;;;;;;;;;;4934370;29;20798;-78
2022/09/07 15:13:54;;;;;;;2.58;1.33;;;;;;;;;;4933974;29;20272;-77
2022/09/07 15:16:22;;;;;;;2.63;1.55;;;;;;;;;;4934128;29;20585;-77
2022/09/07 15:19:01;;;;;;;1.85;1.40;;;;;;;;;;4933772;29;20214;-77